sensor_id;sensor_type;location;lat;lon;timestamp;P1;durP1;ratioP1;P2;durP2;ratioP2
7531;SDS011;3807;49.030;8.714;2023-04-25T00:02:06;5.87;;;3.23;;
7531;SDS011;3807;49.030;8.714;2023-04-25T00:04:32;4.00;;;3.03;;
7531;SDS011;3807;49.030;8.714;2023-04-25T00:06:58;4.57;;;3.60;;
7531;SDS011;3807;49.030;8.714;2023-04-25T00:09:26;3.17;;;2.53;;
7531;SDS011;3807;49.030;8.714;2023-04-25T00:11:52;4.67;;;3.00;;
7531;SDS011;3807;49.030;8.714;2023-04-25T00:14:17;4.63;;;2.70;;
7531;SDS011;3807;49.030;8.714;2023-04-25T00:16:43;4.37;;;2.90;;
7531;SDS011;3807;49.030;8.714;2023-04-25T00:19:09;2.90;;;2.60;;
7531;SDS011;3807;49.030;8.714;2023-04-25T00:21:34;2.70;;;2.47;;
7531;SDS011;3807;49.030;8.714;2023-04-25T00:24:00;3.20;;;2.40;;
7531;SDS011;3807;49.030;8.714;2023-04-25T00:26:26;2.97;;;2.43;;
7531;SDS011;3807;49.030;8.714;2023-04-25T00:28:52;3.23;;;2.43;;
7531;SDS011;3807;49.030;8.714;2023-04-25T00:31:17;3.50;;;2.60;;
7531;SDS011;3807;49.030;8.714;2023-04-25T00:33:43;4.87;;;3.03;;
7531;SDS011;3807;49.030;8.714;2023-04-25T00:36:08;3.67;;;2.60;;
7531;SDS011;3807;49.030;8.714;2023-04-25T00:38:34;4.07;;;3.10;;
7531;SDS011;3807;49.030;8.714;2023-04-25T00:41:00;3.10;;;2.40;;
7531;SDS011;3807;49.030;8.714;2023-04-25T00:43:28;2.30;;;2.10;;
7531;SDS011;3807;49.030;8.714;2023-04-25T00:45:57;3.27;;;2.40;;
7531;SDS011;3807;49.030;8.714;2023-04-25T00:48:24;3.23;;;2.47;;
7531;SDS011;3807;49.030;8.714;2023-04-25T00:50:51;2.13;;;1.90;;
7531;SDS011;3807;49.030;8.714;2023-04-25T00:53:19;4.73;;;2.47;;
7531;SDS011;3807;49.030;8.714;2023-04-25T00:55:45;3.07;;;2.60;;
7531;SDS011;3807;49.030;8.714;2023-04-25T00:58:11;3.27;;;2.80;;
7531;SDS011;3807;49.030;8.714;2023-04-25T01:00:36;2.77;;;2.33;;
7531;SDS011;3807;49.030;8.714;2023-04-25T01:03:02;3.53;;;2.73;;
7531;SDS011;3807;49.030;8.714;2023-04-25T01:05:28;3.03;;;2.23;;
7531;SDS011;3807;49.030;8.714;2023-04-25T01:07:54;3.07;;;2.50;;
7531;SDS011;3807;49.030;8.714;2023-04-25T01:10:20;4.13;;;3.00;;
7531;SDS011;3807;49.030;8.714;2023-04-25T01:12:45;4.30;;;2.53;;
7531;SDS011;3807;49.030;8.714;2023-04-25T01:15:11;4.23;;;2.37;;
7531;SDS011;3807;49.030;8.714;2023-04-25T01:17:36;4.47;;;2.93;;
7531;SDS011;3807;49.030;8.714;2023-04-25T01:20:05;3.33;;;2.50;;
7531;SDS011;3807;49.030;8.714;2023-04-25T01:22:32;3.37;;;2.27;;
7531;SDS011;3807;49.030;8.714;2023-04-25T01:24:58;2.77;;;2.17;;
7531;SDS011;3807;49.030;8.714;2023-04-25T01:27:24;2.37;;;2.00;;
7531;SDS011;3807;49.030;8.714;2023-04-25T01:29:50;2.40;;;2.20;;
7531;SDS011;3807;49.030;8.714;2023-04-25T01:32:16;3.63;;;2.43;;
7531;SDS011;3807;49.030;8.714;2023-04-25T01:34:42;4.60;;;2.90;;
7531;SDS011;3807;49.030;8.714;2023-04-25T01:37:07;2.33;;;2.13;;
7531;SDS011;3807;49.030;8.714;2023-04-25T01:39:33;3.33;;;2.63;;
7531;SDS011;3807;49.030;8.714;2023-04-25T01:41:59;3.00;;;2.40;;
7531;SDS011;3807;49.030;8.714;2023-04-25T01:44:24;3.43;;;2.47;;
7531;SDS011;3807;49.030;8.714;2023-04-25T01:46:50;3.00;;;2.37;;
7531;SDS011;3807;49.030;8.714;2023-04-25T01:49:16;4.63;;;2.47;;
7531;SDS011;3807;49.030;8.714;2023-04-25T01:51:41;2.47;;;2.10;;
7531;SDS011;3807;49.030;8.714;2023-04-25T01:54:07;2.83;;;2.23;;
7531;SDS011;3807;49.030;8.714;2023-04-25T01:56:36;4.33;;;2.40;;
7531;SDS011;3807;49.030;8.714;2023-04-25T01:59:03;4.60;;;2.80;;
7531;SDS011;3807;49.030;8.714;2023-04-25T02:01:29;4.60;;;2.67;;
7531;SDS011;3807;49.030;8.714;2023-04-25T02:03:55;5.97;;;2.70;;
7531;SDS011;3807;49.030;8.714;2023-04-25T02:06:20;3.73;;;2.40;;
7531;SDS011;3807;49.030;8.714;2023-04-25T02:08:45;3.37;;;2.20;;
7531;SDS011;3807;49.030;8.714;2023-04-25T02:11:11;3.13;;;2.70;;
7531;SDS011;3807;49.030;8.714;2023-04-25T02:13:36;5.60;;;2.60;;
7531;SDS011;3807;49.030;8.714;2023-04-25T02:16:01;2.57;;;2.30;;
7531;SDS011;3807;49.030;8.714;2023-04-25T02:18:27;3.87;;;2.60;;
7531;SDS011;3807;49.030;8.714;2023-04-25T02:20:52;3.33;;;2.43;;
7531;SDS011;3807;49.030;8.714;2023-04-25T02:23:18;2.23;;;2.00;;
7531;SDS011;3807;49.030;8.714;2023-04-25T02:25:46;2.17;;;1.97;;
7531;SDS011;3807;49.030;8.714;2023-04-25T02:28:11;5.67;;;2.30;;
7531;SDS011;3807;49.030;8.714;2023-04-25T02:30:37;2.90;;;2.40;;
7531;SDS011;3807;49.030;8.714;2023-04-25T02:33:02;3.03;;;2.43;;
7531;SDS011;3807;49.030;8.714;2023-04-25T02:35:28;2.67;;;2.40;;
7531;SDS011;3807;49.030;8.714;2023-04-25T02:37:53;2.73;;;2.20;;
7531;SDS011;3807;49.030;8.714;2023-04-25T02:40:18;4.13;;;2.70;;
7531;SDS011;3807;49.030;8.714;2023-04-25T02:42:44;4.00;;;2.37;;
7531;SDS011;3807;49.030;8.714;2023-04-25T02:45:10;2.23;;;2.03;;
7531;SDS011;3807;49.030;8.714;2023-04-25T02:47:36;4.97;;;2.63;;
7531;SDS011;3807;49.030;8.714;2023-04-25T02:50:01;3.27;;;2.63;;
7531;SDS011;3807;49.030;8.714;2023-04-25T02:52:27;3.20;;;2.53;;
7531;SDS011;3807;49.030;8.714;2023-04-25T02:54:53;2.93;;;2.67;;
7531;SDS011;3807;49.030;8.714;2023-04-25T02:57:18;3.37;;;2.63;;
7531;SDS011;3807;49.030;8.714;2023-04-25T02:59:43;3.60;;;2.70;;
7531;SDS011;3807;49.030;8.714;2023-04-25T03:02:09;5.17;;;3.20;;
7531;SDS011;3807;49.030;8.714;2023-04-25T03:04:34;4.37;;;2.60;;
7531;SDS011;3807;49.030;8.714;2023-04-25T03:07:00;4.27;;;2.23;;
7531;SDS011;3807;49.030;8.714;2023-04-25T03:09:26;5.20;;;3.10;;
7531;SDS011;3807;49.030;8.714;2023-04-25T03:11:51;2.60;;;2.40;;
7531;SDS011;3807;49.030;8.714;2023-04-25T03:14:17;3.27;;;2.70;;
7531;SDS011;3807;49.030;8.714;2023-04-25T03:16:42;3.13;;;2.40;;
7531;SDS011;3807;49.030;8.714;2023-04-25T03:19:07;3.87;;;2.90;;
7531;SDS011;3807;49.030;8.714;2023-04-25T03:21:33;4.50;;;2.93;;
7531;SDS011;3807;49.030;8.714;2023-04-25T03:24:01;6.93;;;2.97;;
7531;SDS011;3807;49.030;8.714;2023-04-25T03:26:27;5.27;;;3.10;;
7531;SDS011;3807;49.030;8.714;2023-04-25T03:28:53;4.07;;;2.87;;
7531;SDS011;3807;49.030;8.714;2023-04-25T03:31:18;5.10;;;3.20;;
7531;SDS011;3807;49.030;8.714;2023-04-25T03:33:43;5.87;;;3.00;;
7531;SDS011;3807;49.030;8.714;2023-04-25T03:36:09;3.53;;;2.73;;
7531;SDS011;3807;49.030;8.714;2023-04-25T03:38:35;4.30;;;3.00;;
7531;SDS011;3807;49.030;8.714;2023-04-25T03:41:01;4.17;;;2.93;;
7531;SDS011;3807;49.030;8.714;2023-04-25T03:43:27;4.70;;;3.30;;
7531;SDS011;3807;49.030;8.714;2023-04-25T03:45:52;4.07;;;2.90;;
7531;SDS011;3807;49.030;8.714;2023-04-25T03:48:18;4.90;;;3.17;;
7531;SDS011;3807;49.030;8.714;2023-04-25T03:50:44;3.60;;;2.97;;
7531;SDS011;3807;49.030;8.714;2023-04-25T03:53:09;5.93;;;2.93;;
7531;SDS011;3807;49.030;8.714;2023-04-25T03:55:35;2.97;;;2.33;;
7531;SDS011;3807;49.030;8.714;2023-04-25T03:58:00;4.40;;;3.07;;
7531;SDS011;3807;49.030;8.714;2023-04-25T04:00:25;5.53;;;3.67;;
7531;SDS011;3807;49.030;8.714;2023-04-25T04:02:51;3.80;;;3.27;;
7531;SDS011;3807;49.030;8.714;2023-04-25T04:05:16;4.73;;;3.43;;
7531;SDS011;3807;49.030;8.714;2023-04-25T04:07:42;5.07;;;3.83;;
7531;SDS011;3807;49.030;8.714;2023-04-25T04:10:08;5.00;;;3.73;;
7531;SDS011;3807;49.030;8.714;2023-04-25T04:12:34;4.77;;;3.30;;
7531;SDS011;3807;49.030;8.714;2023-04-25T04:15:00;6.90;;;4.67;;
7531;SDS011;3807;49.030;8.714;2023-04-25T04:17:25;9.70;;;5.17;;
7531;SDS011;3807;49.030;8.714;2023-04-25T04:19:51;7.10;;;5.10;;
7531;SDS011;3807;49.030;8.714;2023-04-25T04:22:16;7.23;;;5.77;;
7531;SDS011;3807;49.030;8.714;2023-04-25T04:24:41;5.40;;;3.23;;
7531;SDS011;3807;49.030;8.714;2023-04-25T04:27:11;3.83;;;3.10;;
7531;SDS011;3807;49.030;8.714;2023-04-25T04:29:37;3.87;;;3.17;;
7531;SDS011;3807;49.030;8.714;2023-04-25T04:32:03;3.50;;;3.20;;
7531;SDS011;3807;49.030;8.714;2023-04-25T04:34:29;4.70;;;3.43;;
7531;SDS011;3807;49.030;8.714;2023-04-25T04:36:55;4.43;;;3.10;;
7531;SDS011;3807;49.030;8.714;2023-04-25T04:39:21;4.73;;;3.10;;
7531;SDS011;3807;49.030;8.714;2023-04-25T04:41:47;4.77;;;3.20;;
7531;SDS011;3807;49.030;8.714;2023-04-25T04:44:12;4.33;;;3.30;;
7531;SDS011;3807;49.030;8.714;2023-04-25T04:46:38;6.83;;;3.50;;
7531;SDS011;3807;49.030;8.714;2023-04-25T04:49:07;3.47;;;3.00;;
7531;SDS011;3807;49.030;8.714;2023-04-25T04:51:33;3.47;;;2.87;;
7531;SDS011;3807;49.030;8.714;2023-04-25T04:53:59;3.80;;;3.10;;
7531;SDS011;3807;49.030;8.714;2023-04-25T04:56:27;4.93;;;3.00;;
7531;SDS011;3807;49.030;8.714;2023-04-25T04:58:54;3.57;;;2.90;;
7531;SDS011;3807;49.030;8.714;2023-04-25T05:01:19;4.53;;;3.13;;
7531;SDS011;3807;49.030;8.714;2023-04-25T05:03:45;7.77;;;3.00;;
7531;SDS011;3807;49.030;8.714;2023-04-25T05:06:10;3.30;;;2.90;;
7531;SDS011;3807;49.030;8.714;2023-04-25T05:08:36;3.50;;;2.97;;
7531;SDS011;3807;49.030;8.714;2023-04-25T05:11:01;4.67;;;3.10;;
7531;SDS011;3807;49.030;8.714;2023-04-25T05:13:27;4.87;;;3.20;;
7531;SDS011;3807;49.030;8.714;2023-04-25T05:15:52;4.03;;;3.03;;
7531;SDS011;3807;49.030;8.714;2023-04-25T05:18:17;4.13;;;2.83;;
7531;SDS011;3807;49.030;8.714;2023-04-25T05:20:43;3.57;;;3.10;;
7531;SDS011;3807;49.030;8.714;2023-04-25T05:23:08;4.40;;;3.03;;
7531;SDS011;3807;49.030;8.714;2023-04-25T05:25:33;4.30;;;3.20;;
7531;SDS011;3807;49.030;8.714;2023-04-25T05:27:59;4.60;;;3.30;;
7531;SDS011;3807;49.030;8.714;2023-04-25T05:30:24;3.90;;;3.10;;
7531;SDS011;3807;49.030;8.714;2023-04-25T05:32:50;4.10;;;3.60;;
7531;SDS011;3807;49.030;8.714;2023-04-25T05:35:15;5.73;;;3.60;;
7531;SDS011;3807;49.030;8.714;2023-04-25T05:37:41;3.87;;;3.10;;
7531;SDS011;3807;49.030;8.714;2023-04-25T05:40:07;3.57;;;2.97;;
7531;SDS011;3807;49.030;8.714;2023-04-25T05:42:33;4.43;;;3.00;;
7531;SDS011;3807;49.030;8.714;2023-04-25T05:44:59;4.60;;;3.07;;
7531;SDS011;3807;49.030;8.714;2023-04-25T05:47:24;6.67;;;3.20;;
7531;SDS011;3807;49.030;8.714;2023-04-25T05:49:49;4.63;;;3.20;;
7531;SDS011;3807;49.030;8.714;2023-04-25T05:52:15;5.17;;;3.47;;
7531;SDS011;3807;49.030;8.714;2023-04-25T05:54:40;4.33;;;3.10;;
7531;SDS011;3807;49.030;8.714;2023-04-25T05:57:06;5.03;;;4.00;;
7531;SDS011;3807;49.030;8.714;2023-04-25T05:59:31;5.97;;;3.67;;
7531;SDS011;3807;49.030;8.714;2023-04-25T06:01:56;4.43;;;3.77;;
7531;SDS011;3807;49.030;8.714;2023-04-25T06:04:22;4.93;;;3.40;;
7531;SDS011;3807;49.030;8.714;2023-04-25T06:06:47;3.37;;;2.97;;
7531;SDS011;3807;49.030;8.714;2023-04-25T06:09:12;4.33;;;3.20;;
7531;SDS011;3807;49.030;8.714;2023-04-25T06:11:38;5.13;;;3.37;;
7531;SDS011;3807;49.030;8.714;2023-04-25T06:14:03;3.83;;;3.23;;
7531;SDS011;3807;49.030;8.714;2023-04-25T06:16:28;3.97;;;2.57;;
7531;SDS011;3807;49.030;8.714;2023-04-25T06:18:54;3.13;;;2.83;;
7531;SDS011;3807;49.030;8.714;2023-04-25T06:21:19;4.13;;;3.00;;
7531;SDS011;3807;49.030;8.714;2023-04-25T06:23:44;4.57;;;3.40;;
7531;SDS011;3807;49.030;8.714;2023-04-25T06:26:10;4.00;;;2.87;;
7531;SDS011;3807;49.030;8.714;2023-04-25T06:28:35;4.63;;;3.40;;
7531;SDS011;3807;49.030;8.714;2023-04-25T06:31:00;4.43;;;3.37;;
7531;SDS011;3807;49.030;8.714;2023-04-25T06:33:26;3.97;;;3.20;;
7531;SDS011;3807;49.030;8.714;2023-04-25T06:35:51;3.97;;;3.30;;
7531;SDS011;3807;49.030;8.714;2023-04-25T06:38:17;3.50;;;3.20;;
7531;SDS011;3807;49.030;8.714;2023-04-25T06:40:42;6.03;;;3.40;;
7531;SDS011;3807;49.030;8.714;2023-04-25T06:43:07;4.43;;;3.10;;
7531;SDS011;3807;49.030;8.714;2023-04-25T06:45:33;4.53;;;3.13;;
7531;SDS011;3807;49.030;8.714;2023-04-25T06:47:58;4.70;;;3.37;;
7531;SDS011;3807;49.030;8.714;2023-04-25T06:50:23;4.90;;;3.40;;
7531;SDS011;3807;49.030;8.714;2023-04-25T06:52:49;4.73;;;3.27;;
7531;SDS011;3807;49.030;8.714;2023-04-25T06:55:14;4.13;;;3.23;;
7531;SDS011;3807;49.030;8.714;2023-04-25T06:57:39;5.73;;;3.70;;
7531;SDS011;3807;49.030;8.714;2023-04-25T07:00:05;5.33;;;3.97;;
7531;SDS011;3807;49.030;8.714;2023-04-25T07:02:33;3.83;;;3.43;;
7531;SDS011;3807;49.030;8.714;2023-04-25T07:04:59;3.93;;;3.23;;
7531;SDS011;3807;49.030;8.714;2023-04-25T07:07:25;5.77;;;3.70;;
7531;SDS011;3807;49.030;8.714;2023-04-25T07:09:50;4.60;;;3.53;;
7531;SDS011;3807;49.030;8.714;2023-04-25T07:12:16;6.93;;;3.70;;
7531;SDS011;3807;49.030;8.714;2023-04-25T07:14:41;6.07;;;3.57;;
7531;SDS011;3807;49.030;8.714;2023-04-25T07:17:06;4.87;;;3.90;;
7531;SDS011;3807;49.030;8.714;2023-04-25T07:19:32;6.07;;;4.53;;
7531;SDS011;3807;49.030;8.714;2023-04-25T07:21:58;5.07;;;3.63;;
7531;SDS011;3807;49.030;8.714;2023-04-25T07:24:23;4.67;;;3.67;;
7531;SDS011;3807;49.030;8.714;2023-04-25T07:26:49;6.87;;;3.60;;
7531;SDS011;3807;49.030;8.714;2023-04-25T07:29:14;5.00;;;4.20;;
7531;SDS011;3807;49.030;8.714;2023-04-25T07:31:39;5.00;;;4.50;;
7531;SDS011;3807;49.030;8.714;2023-04-25T07:34:05;5.70;;;4.10;;
7531;SDS011;3807;49.030;8.714;2023-04-25T07:36:31;4.27;;;3.80;;
7531;SDS011;3807;49.030;8.714;2023-04-25T07:38:56;7.80;;;4.37;;
7531;SDS011;3807;49.030;8.714;2023-04-25T07:41:21;4.30;;;3.87;;
7531;SDS011;3807;49.030;8.714;2023-04-25T07:43:47;9.17;;;4.50;;
7531;SDS011;3807;49.030;8.714;2023-04-25T07:46:12;5.57;;;4.20;;
7531;SDS011;3807;49.030;8.714;2023-04-25T07:48:37;6.93;;;4.03;;
7531;SDS011;3807;49.030;8.714;2023-04-25T07:51:03;4.83;;;3.90;;
7531;SDS011;3807;49.030;8.714;2023-04-25T07:53:30;8.13;;;4.43;;
7531;SDS011;3807;49.030;8.714;2023-04-25T07:55:55;5.53;;;4.33;;
7531;SDS011;3807;49.030;8.714;2023-04-25T07:58:21;5.73;;;3.33;;
7531;SDS011;3807;49.030;8.714;2023-04-25T08:00:47;4.80;;;3.80;;
7531;SDS011;3807;49.030;8.714;2023-04-25T08:03:13;6.73;;;4.90;;
7531;SDS011;3807;49.030;8.714;2023-04-25T08:05:38;6.90;;;4.30;;
7531;SDS011;3807;49.030;8.714;2023-04-25T08:08:03;5.37;;;3.73;;
7531;SDS011;3807;49.030;8.714;2023-04-25T08:10:31;7.53;;;5.13;;
7531;SDS011;3807;49.030;8.714;2023-04-25T08:12:56;6.23;;;4.90;;
7531;SDS011;3807;49.030;8.714;2023-04-25T08:15:22;7.27;;;4.73;;
7531;SDS011;3807;49.030;8.714;2023-04-25T08:17:47;8.17;;;5.40;;
7531;SDS011;3807;49.030;8.714;2023-04-25T08:20:12;7.27;;;4.83;;
7531;SDS011;3807;49.030;8.714;2023-04-25T08:22:38;6.97;;;5.23;;
7531;SDS011;3807;49.030;8.714;2023-04-25T08:25:03;8.17;;;5.47;;
7531;SDS011;3807;49.030;8.714;2023-04-25T08:27:29;8.00;;;5.33;;
7531;SDS011;3807;49.030;8.714;2023-04-25T08:29:55;8.27;;;5.00;;
7531;SDS011;3807;49.030;8.714;2023-04-25T08:32:20;7.10;;;5.50;;
7531;SDS011;3807;49.030;8.714;2023-04-25T08:34:46;6.00;;;4.63;;
7531;SDS011;3807;49.030;8.714;2023-04-25T08:37:12;6.30;;;4.37;;
7531;SDS011;3807;49.030;8.714;2023-04-25T08:39:37;6.30;;;4.33;;
7531;SDS011;3807;49.030;8.714;2023-04-25T08:42:05;6.30;;;4.80;;
7531;SDS011;3807;49.030;8.714;2023-04-25T08:44:35;8.30;;;4.63;;
7531;SDS011;3807;49.030;8.714;2023-04-25T08:47:02;5.87;;;4.10;;
7531;SDS011;3807;49.030;8.714;2023-04-25T08:49:29;7.47;;;5.80;;
7531;SDS011;3807;49.030;8.714;2023-04-25T08:51:59;7.83;;;5.13;;
7531;SDS011;3807;49.030;8.714;2023-04-25T08:54:26;6.77;;;5.37;;
7531;SDS011;3807;49.030;8.714;2023-04-25T08:56:54;5.77;;;4.57;;
7531;SDS011;3807;49.030;8.714;2023-04-25T08:59:19;7.20;;;5.23;;
7531;SDS011;3807;49.030;8.714;2023-04-25T09:01:46;7.77;;;4.80;;
7531;SDS011;3807;49.030;8.714;2023-04-25T09:04:11;4.70;;;3.53;;
7531;SDS011;3807;49.030;8.714;2023-04-25T09:06:37;3.90;;;3.53;;
7531;SDS011;3807;49.030;8.714;2023-04-25T09:09:03;4.63;;;3.57;;
7531;SDS011;3807;49.030;8.714;2023-04-25T09:11:30;6.63;;;3.30;;
7531;SDS011;3807;49.030;8.714;2023-04-25T09:14:10;4.23;;;3.27;;
7531;SDS011;3807;49.030;8.714;2023-04-25T09:16:40;3.77;;;2.87;;
7531;SDS011;3807;49.030;8.714;2023-04-25T09:21:59;2.67;;;2.20;;
7531;SDS011;3807;49.030;8.714;2023-04-25T09:27:19;3.00;;;2.50;;
7531;SDS011;3807;49.030;8.714;2023-04-25T09:29:50;3.03;;;2.73;;
7531;SDS011;3807;49.030;8.714;2023-04-25T09:32:22;3.60;;;2.90;;
7531;SDS011;3807;49.030;8.714;2023-04-25T09:34:49;4.33;;;3.10;;
7531;SDS011;3807;49.030;8.714;2023-04-25T09:37:17;4.20;;;3.10;;
7531;SDS011;3807;49.030;8.714;2023-04-25T09:39:44;5.07;;;2.93;;
7531;SDS011;3807;49.030;8.714;2023-04-25T09:42:11;3.27;;;2.70;;
7531;SDS011;3807;49.030;8.714;2023-04-25T09:44:36;8.80;;;3.03;;
7531;SDS011;3807;49.030;8.714;2023-04-25T09:47:02;3.87;;;2.90;;
7531;SDS011;3807;49.030;8.714;2023-04-25T09:49:27;3.27;;;2.97;;
7531;SDS011;3807;49.030;8.714;2023-04-25T09:51:53;4.40;;;3.60;;
7531;SDS011;3807;49.030;8.714;2023-04-25T09:54:23;7.13;;;5.10;;
7531;SDS011;3807;49.030;8.714;2023-04-25T09:56:49;10.32;;;6.47;;
7531;SDS011;3807;49.030;8.714;2023-04-25T09:59:17;6.40;;;4.77;;
7531;SDS011;3807;49.030;8.714;2023-04-25T10:01:45;5.80;;;4.50;;
7531;SDS011;3807;49.030;8.714;2023-04-25T10:04:12;6.80;;;5.53;;
7531;SDS011;3807;49.030;8.714;2023-04-25T10:06:43;6.73;;;4.70;;
7531;SDS011;3807;49.030;8.714;2023-04-25T10:09:11;9.27;;;7.20;;
7531;SDS011;3807;49.030;8.714;2023-04-25T10:11:38;6.87;;;5.53;;
7531;SDS011;3807;49.030;8.714;2023-04-25T10:14:04;6.80;;;5.80;;
7531;SDS011;3807;49.030;8.714;2023-04-25T10:16:30;7.00;;;5.30;;
7531;SDS011;3807;49.030;8.714;2023-04-25T10:18:56;8.10;;;4.47;;
7531;SDS011;3807;49.030;8.714;2023-04-25T10:21:21;8.73;;;5.83;;
7531;SDS011;3807;49.030;8.714;2023-04-25T10:23:48;5.10;;;4.53;;
7531;SDS011;3807;49.030;8.714;2023-04-25T10:26:14;6.80;;;5.83;;
7531;SDS011;3807;49.030;8.714;2023-04-25T10:31:21;7.90;;;5.43;;
7531;SDS011;3807;49.030;8.714;2023-04-25T10:33:46;9.53;;;4.93;;
7531;SDS011;3807;49.030;8.714;2023-04-25T10:38:40;9.13;;;4.53;;
7531;SDS011;3807;49.030;8.714;2023-04-25T10:41:08;8.13;;;4.77;;
7531;SDS011;3807;49.030;8.714;2023-04-25T10:48:52;6.10;;;4.70;;
7531;SDS011;3807;49.030;8.714;2023-04-25T10:56:20;11.73;;;5.30;;
7531;SDS011;3807;49.030;8.714;2023-04-25T10:58:46;10.03;;;6.00;;
7531;SDS011;3807;49.030;8.714;2023-04-25T11:01:13;9.03;;;5.63;;
7531;SDS011;3807;49.030;8.714;2023-04-25T11:03:40;9.97;;;6.20;;
7531;SDS011;3807;49.030;8.714;2023-04-25T11:06:10;9.40;;;6.63;;
7531;SDS011;3807;49.030;8.714;2023-04-25T11:08:51;13.43;;;7.33;;
7531;SDS011;3807;49.030;8.714;2023-04-25T11:11:17;8.50;;;5.77;;
7531;SDS011;3807;49.030;8.714;2023-04-25T11:13:43;7.93;;;5.73;;
7531;SDS011;3807;49.030;8.714;2023-04-25T11:16:10;11.00;;;6.47;;
7531;SDS011;3807;49.030;8.714;2023-04-25T11:18:35;10.83;;;6.50;;
7531;SDS011;3807;49.030;8.714;2023-04-25T11:21:02;9.70;;;5.77;;
7531;SDS011;3807;49.030;8.714;2023-04-25T11:23:27;10.73;;;6.50;;
7531;SDS011;3807;49.030;8.714;2023-04-25T11:25:55;12.07;;;7.37;;
7531;SDS011;3807;49.030;8.714;2023-04-25T11:28:20;8.27;;;5.63;;
7531;SDS011;3807;49.030;8.714;2023-04-25T11:30:50;8.07;;;5.60;;
7531;SDS011;3807;49.030;8.714;2023-04-25T11:33:15;7.83;;;5.50;;
7531;SDS011;3807;49.030;8.714;2023-04-25T11:35:41;8.73;;;6.50;;
7531;SDS011;3807;49.030;8.714;2023-04-25T11:38:06;8.37;;;4.97;;
7531;SDS011;3807;49.030;8.714;2023-04-25T11:40:32;9.10;;;5.67;;
7531;SDS011;3807;49.030;8.714;2023-04-25T11:42:59;7.93;;;4.90;;
7531;SDS011;3807;49.030;8.714;2023-04-25T11:45:25;7.70;;;5.37;;
7531;SDS011;3807;49.030;8.714;2023-04-25T11:47:51;12.13;;;7.33;;
7531;SDS011;3807;49.030;8.714;2023-04-25T11:50:17;8.03;;;5.80;;
7531;SDS011;3807;49.030;8.714;2023-04-25T11:52:43;8.73;;;6.37;;
7531;SDS011;3807;49.030;8.714;2023-04-25T11:55:17;9.00;;;5.07;;
7531;SDS011;3807;49.030;8.714;2023-04-25T11:57:44;11.43;;;7.23;;
7531;SDS011;3807;49.030;8.714;2023-04-25T12:00:19;9.87;;;5.97;;
7531;SDS011;3807;49.030;8.714;2023-04-25T12:02:46;6.77;;;5.20;;
7531;SDS011;3807;49.030;8.714;2023-04-25T12:05:14;9.40;;;6.20;;
7531;SDS011;3807;49.030;8.714;2023-04-25T12:07:41;7.40;;;5.10;;
7531;SDS011;3807;49.030;8.714;2023-04-25T12:10:08;8.33;;;5.63;;
7531;SDS011;3807;49.030;8.714;2023-04-25T12:12:35;7.83;;;5.77;;
7531;SDS011;3807;49.030;8.714;2023-04-25T12:15:08;8.40;;;4.93;;
7531;SDS011;3807;49.030;8.714;2023-04-25T12:17:38;9.13;;;5.77;;
7531;SDS011;3807;49.030;8.714;2023-04-25T12:20:10;6.00;;;4.53;;
7531;SDS011;3807;49.030;8.714;2023-04-25T12:22:40;7.17;;;5.00;;
7531;SDS011;3807;49.030;8.714;2023-04-25T12:25:10;7.23;;;5.30;;
7531;SDS011;3807;49.030;8.714;2023-04-25T12:28:14;7.60;;;5.37;;
7531;SDS011;3807;49.030;8.714;2023-04-25T12:30:57;7.17;;;5.20;;
7531;SDS011;3807;49.030;8.714;2023-04-25T12:33:23;6.70;;;4.60;;
7531;SDS011;3807;49.030;8.714;2023-04-25T12:35:49;6.67;;;4.63;;
7531;SDS011;3807;49.030;8.714;2023-04-25T12:38:48;10.73;;;6.00;;
7531;SDS011;3807;49.030;8.714;2023-04-25T12:41:07;5.73;;;5.17;;
7531;SDS011;3807;49.030;8.714;2023-04-25T12:43:33;6.07;;;5.10;;
7531;SDS011;3807;49.030;8.714;2023-04-25T12:45:59;10.17;;;5.10;;
7531;SDS011;3807;49.030;8.714;2023-04-25T12:48:25;6.77;;;4.43;;
7531;SDS011;3807;49.030;8.714;2023-04-25T12:50:50;11.13;;;6.07;;
7531;SDS011;3807;49.030;8.714;2023-04-25T12:55:42;10.77;;;5.63;;
7531;SDS011;3807;49.030;8.714;2023-04-25T12:58:10;9.40;;;5.30;;
7531;SDS011;3807;49.030;8.714;2023-04-25T13:00:36;9.23;;;5.67;;
7531;SDS011;3807;49.030;8.714;2023-04-25T13:03:01;8.47;;;5.20;;
7531;SDS011;3807;49.030;8.714;2023-04-25T13:05:27;6.77;;;4.83;;
7531;SDS011;3807;49.030;8.714;2023-04-25T13:07:52;7.73;;;4.93;;
7531;SDS011;3807;49.030;8.714;2023-04-25T13:10:18;6.80;;;4.50;;
7531;SDS011;3807;49.030;8.714;2023-04-25T13:12:43;5.83;;;4.80;;
7531;SDS011;3807;49.030;8.714;2023-04-25T13:15:09;6.73;;;4.77;;
7531;SDS011;3807;49.030;8.714;2023-04-25T13:17:36;8.00;;;5.30;;
7531;SDS011;3807;49.030;8.714;2023-04-25T13:20:03;11.93;;;5.00;;
7531;SDS011;3807;49.030;8.714;2023-04-25T13:22:31;8.77;;;5.57;;
7531;SDS011;3807;49.030;8.714;2023-04-25T13:24:56;7.53;;;5.07;;
7531;SDS011;3807;49.030;8.714;2023-04-25T13:27:21;7.63;;;5.30;;
7531;SDS011;3807;49.030;8.714;2023-04-25T13:29:47;9.30;;;5.53;;
7531;SDS011;3807;49.030;8.714;2023-04-25T13:32:12;9.73;;;4.83;;
7531;SDS011;3807;49.030;8.714;2023-04-25T13:34:37;9.67;;;5.77;;
7531;SDS011;3807;49.030;8.714;2023-04-25T13:37:03;12.20;;;6.13;;
7531;SDS011;3807;49.030;8.714;2023-04-25T13:39:28;9.40;;;6.30;;
7531;SDS011;3807;49.030;8.714;2023-04-25T13:41:53;11.33;;;6.67;;
7531;SDS011;3807;49.030;8.714;2023-04-25T13:44:19;9.10;;;6.33;;
7531;SDS011;3807;49.030;8.714;2023-04-25T13:46:44;10.13;;;7.17;;
7531;SDS011;3807;49.030;8.714;2023-04-25T13:49:11;10.17;;;6.37;;
7531;SDS011;3807;49.030;8.714;2023-04-25T13:51:36;11.20;;;6.77;;
7531;SDS011;3807;49.030;8.714;2023-04-25T13:54:02;10.23;;;7.03;;
7531;SDS011;3807;49.030;8.714;2023-04-25T13:56:27;11.57;;;5.67;;
7531;SDS011;3807;49.030;8.714;2023-04-25T13:58:53;11.03;;;5.60;;
7531;SDS011;3807;49.030;8.714;2023-04-25T14:01:18;8.90;;;5.20;;
7531;SDS011;3807;49.030;8.714;2023-04-25T14:03:44;13.73;;;5.80;;
7531;SDS011;3807;49.030;8.714;2023-04-25T14:06:10;8.87;;;5.47;;
7531;SDS011;3807;49.030;8.714;2023-04-25T14:08:37;10.57;;;5.13;;
7531;SDS011;3807;49.030;8.714;2023-04-25T14:11:02;13.17;;;5.70;;
7531;SDS011;3807;49.030;8.714;2023-04-25T14:13:28;8.70;;;5.37;;
7531;SDS011;3807;49.030;8.714;2023-04-25T14:15:53;11.17;;;6.37;;
7531;SDS011;3807;49.030;8.714;2023-04-25T14:18:18;6.10;;;4.93;;
7531;SDS011;3807;49.030;8.714;2023-04-25T14:20:44;11.50;;;5.13;;
7531;SDS011;3807;49.030;8.714;2023-04-25T14:23:10;11.17;;;5.07;;
7531;SDS011;3807;49.030;8.714;2023-04-25T14:25:35;8.93;;;5.07;;
7531;SDS011;3807;49.030;8.714;2023-04-25T14:28:01;12.17;;;6.33;;
7531;SDS011;3807;49.030;8.714;2023-04-25T14:30:26;11.07;;;5.53;;
7531;SDS011;3807;49.030;8.714;2023-04-25T14:32:52;8.77;;;5.77;;
7531;SDS011;3807;49.030;8.714;2023-04-25T14:35:17;7.63;;;4.70;;
7531;SDS011;3807;49.030;8.714;2023-04-25T14:37:42;6.07;;;4.10;;
7531;SDS011;3807;49.030;8.714;2023-04-25T14:40:08;14.10;;;4.63;;
7531;SDS011;3807;49.030;8.714;2023-04-25T14:42:35;13.63;;;5.00;;
7531;SDS011;3807;49.030;8.714;2023-04-25T14:45:02;9.37;;;5.57;;
7531;SDS011;3807;49.030;8.714;2023-04-25T14:47:28;9.60;;;5.27;;
7531;SDS011;3807;49.030;8.714;2023-04-25T14:49:54;8.67;;;4.93;;
7531;SDS011;3807;49.030;8.714;2023-04-25T14:52:22;7.73;;;4.87;;
7531;SDS011;3807;49.030;8.714;2023-04-25T14:54:48;6.80;;;4.70;;
7531;SDS011;3807;49.030;8.714;2023-04-25T14:57:13;10.67;;;5.30;;
7531;SDS011;3807;49.030;8.714;2023-04-25T14:59:39;6.23;;;4.43;;
7531;SDS011;3807;49.030;8.714;2023-04-25T15:02:05;8.63;;;4.27;;
7531;SDS011;3807;49.030;8.714;2023-04-25T15:04:30;9.60;;;4.90;;
7531;SDS011;3807;49.030;8.714;2023-04-25T15:06:56;5.80;;;4.20;;
7531;SDS011;3807;49.030;8.714;2023-04-25T15:09:22;7.93;;;4.77;;
7531;SDS011;3807;49.030;8.714;2023-04-25T15:11:48;6.50;;;4.57;;
7531;SDS011;3807;49.030;8.714;2023-04-25T15:14:14;6.73;;;4.67;;
7531;SDS011;3807;49.030;8.714;2023-04-25T15:16:41;8.73;;;4.50;;
7531;SDS011;3807;49.030;8.714;2023-04-25T15:19:06;7.87;;;5.13;;
7531;SDS011;3807;49.030;8.714;2023-04-25T15:21:33;6.97;;;4.47;;
7531;SDS011;3807;49.030;8.714;2023-04-25T15:23:58;8.33;;;4.73;;
7531;SDS011;3807;49.030;8.714;2023-04-25T15:26:23;10.00;;;5.20;;
7531;SDS011;3807;49.030;8.714;2023-04-25T15:28:49;7.17;;;4.80;;
7531;SDS011;3807;49.030;8.714;2023-04-25T15:31:14;8.00;;;5.20;;
7531;SDS011;3807;49.030;8.714;2023-04-25T15:33:39;5.67;;;4.23;;